sensor_id;sensor_type;location;lat;lon;timestamp;temperature;humidity
13600;DHT22;6871;51.34740610;4.31323160;2023-09-18T00:01:20;24.00;87.40
13600;DHT22;6871;51.34740610;4.31323160;2023-09-18T00:03:49;24.00;87.30
13600;DHT22;6871;51.34740610;4.31323160;2023-09-18T00:06:19;24.00;87.20
13600;DHT22;6871;51.34740610;4.31323160;2023-09-18T00:08:50;24.00;87.20
13600;DHT22;6871;51.34740610;4.31323160;2023-09-18T00:11:20;24.00;87.30
13600;DHT22;6871;51.34740610;4.31323160;2023-09-18T00:13:50;24.00;87.40
13600;DHT22;6871;51.34740610;4.31323160;2023-09-18T00:16:20;24.00;87.40
13600;DHT22;6871;51.34740610;4.31323160;2023-09-18T00:18:49;24.00;87.30
13600;DHT22;6871;51.34740610;4.31323160;2023-09-18T00:21:18;24.00;87.20
13600;DHT22;6871;51.34740610;4.31323160;2023-09-18T00:23:48;24.00;87.30
13600;DHT22;6871;51.34740610;4.31323160;2023-09-18T00:26:17;24.00;87.30
13600;DHT22;6871;51.34740610;4.31323160;2023-09-18T00:28:47;23.90;87.40
13600;DHT22;6871;51.34740610;4.31323160;2023-09-18T00:31:16;24.00;87.30
13600;DHT22;6871;51.34740610;4.31323160;2023-09-18T00:33:46;24.00;87.30
13600;DHT22;6871;51.34740610;4.31323160;2023-09-18T00:36:16;24.00;87.30
13600;DHT22;6871;51.34740610;4.31323160;2023-09-18T00:38:45;23.90;87.20
13600;DHT22;6871;51.34740610;4.31323160;2023-09-18T00:41:15;24.00;87.40
13600;DHT22;6871;51.34740610;4.31323160;2023-09-18T00:43:45;24.00;87.40
13600;DHT22;6871;51.34740610;4.31323160;2023-09-18T00:46:14;24.00;87.40
13600;DHT22;6871;51.34740610;4.31323160;2023-09-18T00:48:44;23.90;87.40
13600;DHT22;6871;51.34740610;4.31323160;2023-09-18T00:51:18;24.00;87.30
13600;DHT22;6871;51.34740610;4.31323160;2023-09-18T00:53:48;23.90;87.30
13600;DHT22;6871;51.34740610;4.31323160;2023-09-18T00:56:19;23.90;87.30
13600;DHT22;6871;51.34740610;4.31323160;2023-09-18T00:58:49;23.90;87.40
13600;DHT22;6871;51.34740610;4.31323160;2023-09-18T01:01:19;23.90;87.40
13600;DHT22;6871;51.34740610;4.31323160;2023-09-18T01:03:50;23.90;87.40
13600;DHT22;6871;51.34740610;4.31323160;2023-09-18T01:06:21;23.90;87.30
13600;DHT22;6871;51.34740610;4.31323160;2023-09-18T01:08:51;23.90;87.30
13600;DHT22;6871;51.34740610;4.31323160;2023-09-18T01:11:26;23.90;87.30
13600;DHT22;6871;51.34740610;4.31323160;2023-09-18T01:13:59;23.90;87.40
13600;DHT22;6871;51.34740610;4.31323160;2023-09-18T01:16:34;23.90;87.50
13600;DHT22;6871;51.34740610;4.31323160;2023-09-18T01:19:03;23.90;87.40
13600;DHT22;6871;51.34740610;4.31323160;2023-09-18T01:21:32;23.90;87.30
13600;DHT22;6871;51.34740610;4.31323160;2023-09-18T01:24:02;23.90;87.30
13600;DHT22;6871;51.34740610;4.31323160;2023-09-18T01:26:32;23.90;87.30
13600;DHT22;6871;51.34740610;4.31323160;2023-09-18T01:29:01;23.90;87.50
13600;DHT22;6871;51.34740610;4.31323160;2023-09-18T01:31:32;23.90;87.50
13600;DHT22;6871;51.34740610;4.31323160;2023-09-18T01:34:01;23.90;87.40
13600;DHT22;6871;51.34740610;4.31323160;2023-09-18T01:36:32;23.90;87.30
13600;DHT22;6871;51.34740610;4.31323160;2023-09-18T01:39:02;23.90;87.20
13600;DHT22;6871;51.34740610;4.31323160;2023-09-18T01:41:33;23.90;87.30
13600;DHT22;6871;51.34740610;4.31323160;2023-09-18T01:44:03;23.90;87.40
13600;DHT22;6871;51.34740610;4.31323160;2023-09-18T01:46:34;23.90;87.50
13600;DHT22;6871;51.34740610;4.31323160;2023-09-18T01:49:04;23.90;87.20
13600;DHT22;6871;51.34740610;4.31323160;2023-09-18T01:51:34;23.90;87.30
13600;DHT22;6871;51.34740610;4.31323160;2023-09-18T01:54:04;23.80;87.00
13600;DHT22;6871;51.34740610;4.31323160;2023-09-18T01:56:34;23.90;87.40
13600;DHT22;6871;51.34740610;4.31323160;2023-09-18T01:59:03;23.90;87.40
13600;DHT22;6871;51.34740610;4.31323160;2023-09-18T02:01:32;23.90;87.50
13600;DHT22;6871;51.34740610;4.31323160;2023-09-18T02:04:03;23.90;87.40
13600;DHT22;6871;51.34740610;4.31323160;2023-09-18T02:06:32;23.90;87.30
13600;DHT22;6871;51.34740610;4.31323160;2023-09-18T02:09:02;23.80;87.20
13600;DHT22;6871;51.34740610;4.31323160;2023-09-18T02:11:32;23.80;87.30
13600;DHT22;6871;51.34740610;4.31323160;2023-09-18T02:14:01;23.90;87.40
13600;DHT22;6871;51.34740610;4.31323160;2023-09-18T02:16:33;23.90;87.40
13600;DHT22;6871;51.34740610;4.31323160;2023-09-18T02:19:04;23.90;87.30
13600;DHT22;6871;51.34740610;4.31323160;2023-09-18T02:21:34;23.90;87.30
13600;DHT22;6871;51.34740610;4.31323160;2023-09-18T02:24:04;23.90;86.80
13600;DHT22;6871;51.34740610;4.31323160;2023-09-18T02:26:34;23.90;87.50
13600;DHT22;6871;51.34740610;4.31323160;2023-09-18T02:29:07;23.90;87.60
13600;DHT22;6871;51.34740610;4.31323160;2023-09-18T02:31:39;23.80;87.30
13600;DHT22;6871;51.34740610;4.31323160;2023-09-18T02:34:09;23.80;87.20
13600;DHT22;6871;51.34740610;4.31323160;2023-09-18T02:36:39;23.80;87.30
13600;DHT22;6871;51.34740610;4.31323160;2023-09-18T02:39:08;23.90;87.10
13600;DHT22;6871;51.34740610;4.31323160;2023-09-18T02:41:37;23.90;87.30
13600;DHT22;6871;51.34740610;4.31323160;2023-09-18T02:44:09;23.90;87.40
13600;DHT22;6871;51.34740610;4.31323160;2023-09-18T02:46:41;23.80;87.40
13600;DHT22;6871;51.34740610;4.31323160;2023-09-18T02:49:12;23.80;87.30
13600;DHT22;6871;51.34740610;4.31323160;2023-09-18T02:51:45;23.80;87.30
13600;DHT22;6871;51.34740610;4.31323160;2023-09-18T02:54:39;23.80;87.20
13600;DHT22;6871;51.34740610;4.31323160;2023-09-18T02:57:28;23.80;87.30
13600;DHT22;6871;51.34740610;4.31323160;2023-09-18T02:59:58;23.80;87.30
13600;DHT22;6871;51.34740610;4.31323160;2023-09-18T03:02:28;23.90;87.40
13600;DHT22;6871;51.34740610;4.31323160;2023-09-18T03:04:58;23.80;87.40
13600;DHT22;6871;51.34740610;4.31323160;2023-09-18T03:07:27;23.80;87.20
13600;DHT22;6871;51.34740610;4.31323160;2023-09-18T03:09:58;23.80;87.40
13600;DHT22;6871;51.34740610;4.31323160;2023-09-18T03:12:27;23.80;87.30
13600;DHT22;6871;51.34740610;4.31323160;2023-09-18T03:14:57;23.80;87.40
13600;DHT22;6871;51.34740610;4.31323160;2023-09-18T03:17:27;23.80;87.50
13600;DHT22;6871;51.34740610;4.31323160;2023-09-18T03:19:57;23.80;87.40
13600;DHT22;6871;51.34740610;4.31323160;2023-09-18T03:22:27;23.80;87.20
13600;DHT22;6871;51.34740610;4.31323160;2023-09-18T03:24:56;23.80;87.40
13600;DHT22;6871;51.34740610;4.31323160;2023-09-18T03:27:25;23.80;87.40
13600;DHT22;6871;51.34740610;4.31323160;2023-09-18T03:29:57;23.80;87.40
13600;DHT22;6871;51.34740610;4.31323160;2023-09-18T03:32:26;23.80;87.40
13600;DHT22;6871;51.34740610;4.31323160;2023-09-18T03:34:56;23.80;87.30
13600;DHT22;6871;51.34740610;4.31323160;2023-09-18T03:37:27;23.80;87.30
13600;DHT22;6871;51.34740610;4.31323160;2023-09-18T03:40:16;23.80;87.40
13600;DHT22;6871;51.34740610;4.31323160;2023-09-18T03:42:46;23.80;87.50
13600;DHT22;6871;51.34740610;4.31323160;2023-09-18T03:45:16;23.80;87.50
13600;DHT22;6871;51.34740610;4.31323160;2023-09-18T03:47:47;23.80;87.50
13600;DHT22;6871;51.34740610;4.31323160;2023-09-18T03:50:22;23.80;87.50
13600;DHT22;6871;51.34740610;4.31323160;2023-09-18T03:52:51;23.80;87.50
13600;DHT22;6871;51.34740610;4.31323160;2023-09-18T03:55:39;23.80;88.30
13600;DHT22;6871;51.34740610;4.31323160;2023-09-18T03:58:11;23.80;87.50
13600;DHT22;6871;51.34740610;4.31323160;2023-09-18T04:00:42;23.80;87.50
13600;DHT22;6871;51.34740610;4.31323160;2023-09-18T04:03:12;23.80;87.60
13600;DHT22;6871;51.34740610;4.31323160;2023-09-18T04:05:41;23.80;87.50
13600;DHT22;6871;51.34740610;4.31323160;2023-09-18T04:08:11;23.80;87.40
13600;DHT22;6871;51.34740610;4.31323160;2023-09-18T04:10:51;23.80;87.50
13600;DHT22;6871;51.34740610;4.31323160;2023-09-18T04:13:26;23.80;87.60
13600;DHT22;6871;51.34740610;4.31323160;2023-09-18T04:19:21;23.80;87.60
13600;DHT22;6871;51.34740610;4.31323160;2023-09-18T04:21:57;23.80;87.60
13600;DHT22;6871;51.34740610;4.31323160;2023-09-18T04:27:49;23.70;87.60
13600;DHT22;6871;51.34740610;4.31323160;2023-09-18T04:30:39;23.70;87.70
13600;DHT22;6871;51.34740610;4.31323160;2023-09-18T04:33:16;23.70;87.70
13600;DHT22;6871;51.34740610;4.31323160;2023-09-18T04:35:47;23.70;87.70
13600;DHT22;6871;51.34740610;4.31323160;2023-09-18T04:38:16;23.70;87.70
13600;DHT22;6871;51.34740610;4.31323160;2023-09-18T04:40:56;23.70;87.70
13600;DHT22;6871;51.34740610;4.31323160;2023-09-18T04:43:32;23.70;87.70
13600;DHT22;6871;51.34740610;4.31323160;2023-09-18T04:46:04;23.70;87.70
13600;DHT22;6871;51.34740610;4.31323160;2023-09-18T04:48:46;23.80;87.80
13600;DHT22;6871;51.34740610;4.31323160;2023-09-18T04:51:15;23.80;87.70
13600;DHT22;6871;51.34740610;4.31323160;2023-09-18T04:53:45;23.70;87.60
13600;DHT22;6871;51.34740610;4.31323160;2023-09-18T04:56:15;23.70;87.70
13600;DHT22;6871;51.34740610;4.31323160;2023-09-18T04:58:46;23.70;87.70
13600;DHT22;6871;51.34740610;4.31323160;2023-09-18T05:01:20;23.70;87.60
13600;DHT22;6871;51.34740610;4.31323160;2023-09-18T05:04:12;23.70;87.60
13600;DHT22;6871;51.34740610;4.31323160;2023-09-18T05:07:00;23.70;87.60
13600;DHT22;6871;51.34740610;4.31323160;2023-09-18T05:09:30;23.70;87.80
13600;DHT22;6871;51.34740610;4.31323160;2023-09-18T05:12:00;23.70;87.80
13600;DHT22;6871;51.34740610;4.31323160;2023-09-18T05:14:42;23.70;87.80
13600;DHT22;6871;51.34740610;4.31323160;2023-09-18T05:17:13;23.70;87.80
13600;DHT22;6871;51.34740610;4.31323160;2023-09-18T05:19:43;23.70;87.70
13600;DHT22;6871;51.34740610;4.31323160;2023-09-18T05:22:13;23.70;87.80
13600;DHT22;6871;51.34740610;4.31323160;2023-09-18T05:24:42;23.70;87.80
13600;DHT22;6871;51.34740610;4.31323160;2023-09-18T05:27:13;23.70;88.00
13600;DHT22;6871;51.34740610;4.31323160;2023-09-18T05:29:43;23.70;88.00
13600;DHT22;6871;51.34740610;4.31323160;2023-09-18T05:32:19;23.70;87.80
13600;DHT22;6871;51.34740610;4.31323160;2023-09-18T05:35:08;23.70;87.70
13600;DHT22;6871;51.34740610;4.31323160;2023-09-18T05:38:01;23.70;87.70
13600;DHT22;6871;51.34740610;4.31323160;2023-09-18T05:40:32;23.70;87.90
13600;DHT22;6871;51.34740610;4.31323160;2023-09-18T05:43:04;23.70;87.80
13600;DHT22;6871;51.34740610;4.31323160;2023-09-18T05:45:34;23.70;87.90
13600;DHT22;6871;51.34740610;4.31323160;2023-09-18T05:48:08;23.70;88.00
13600;DHT22;6871;51.34740610;4.31323160;2023-09-18T05:50:39;23.60;87.90
13600;DHT22;6871;51.34740610;4.31323160;2023-09-18T05:53:09;23.70;88.00
13600;DHT22;6871;51.34740610;4.31323160;2023-09-18T05:55:39;23.70;88.10
13600;DHT22;6871;51.34740610;4.31323160;2023-09-18T05:58:08;23.70;88.10
13600;DHT22;6871;51.34740610;4.31323160;2023-09-18T06:00:37;23.70;88.00
13600;DHT22;6871;51.34740610;4.31323160;2023-09-18T06:03:06;23.70;88.00
13600;DHT22;6871;51.34740610;4.31323160;2023-09-18T06:05:37;23.70;88.00
13600;DHT22;6871;51.34740610;4.31323160;2023-09-18T06:08:06;23.70;88.00
13600;DHT22;6871;51.34740610;4.31323160;2023-09-18T06:10:35;23.60;88.90
13600;DHT22;6871;51.34740610;4.31323160;2023-09-18T06:13:05;23.60;88.00
13600;DHT22;6871;51.34740610;4.31323160;2023-09-18T06:15:35;23.60;88.00
13600;DHT22;6871;51.34740610;4.31323160;2023-09-18T06:18:04;23.70;88.10
13600;DHT22;6871;51.34740610;4.31323160;2023-09-18T06:20:34;23.70;87.90
13600;DHT22;6871;51.34740610;4.31323160;2023-09-18T06:23:04;23.60;87.70
13600;DHT22;6871;51.34740610;4.31323160;2023-09-18T06:25:33;23.70;88.00
13600;DHT22;6871;51.34740610;4.31323160;2023-09-18T06:28:03;23.60;87.90
13600;DHT22;6871;51.34740610;4.31323160;2023-09-18T06:30:33;23.60;87.80
13600;DHT22;6871;51.34740610;4.31323160;2023-09-18T06:33:04;23.70;87.90
13600;DHT22;6871;51.34740610;4.31323160;2023-09-18T06:35:33;23.60;87.80
13600;DHT22;6871;51.34740610;4.31323160;2023-09-18T06:38:03;23.60;87.70
13600;DHT22;6871;51.34740610;4.31323160;2023-09-18T06:40:34;23.70;87.80
13600;DHT22;6871;51.34740610;4.31323160;2023-09-18T06:43:04;23.70;87.80
13600;DHT22;6871;51.34740610;4.31323160;2023-09-18T06:45:33;23.60;87.70
13600;DHT22;6871;51.34740610;4.31323160;2023-09-18T06:48:05;23.70;87.80
13600;DHT22;6871;51.34740610;4.31323160;2023-09-18T06:50:34;23.60;87.70
13600;DHT22;6871;51.34740610;4.31323160;2023-09-18T06:53:04;23.70;87.60
13600;DHT22;6871;51.34740610;4.31323160;2023-09-18T06:55:34;23.70;87.70
13600;DHT22;6871;51.34740610;4.31323160;2023-09-18T06:58:03;23.60;87.70
13600;DHT22;6871;51.34740610;4.31323160;2023-09-18T07:00:33;23.70;87.70
13600;DHT22;6871;51.34740610;4.31323160;2023-09-18T07:03:03;23.60;87.60
13600;DHT22;6871;51.34740610;4.31323160;2023-09-18T07:05:32;23.60;87.60
13600;DHT22;6871;51.34740610;4.31323160;2023-09-18T07:08:01;23.70;87.80
13600;DHT22;6871;51.34740610;4.31323160;2023-09-18T07:10:33;23.60;87.60
13600;DHT22;6871;51.34740610;4.31323160;2023-09-18T07:13:04;23.70;87.70
13600;DHT22;6871;51.34740610;4.31323160;2023-09-18T07:15:33;23.60;87.80
13600;DHT22;6871;51.34740610;4.31323160;2023-09-18T07:18:03;23.60;88.10
13600;DHT22;6871;51.34740610;4.31323160;2023-09-18T07:20:32;23.60;88.10
13600;DHT22;6871;51.34740610;4.31323160;2023-09-18T07:23:01;23.60;87.70
13600;DHT22;6871;51.34740610;4.31323160;2023-09-18T07:25:32;23.60;87.80
13600;DHT22;6871;51.34740610;4.31323160;2023-09-18T07:28:01;23.60;88.80
13600;DHT22;6871;51.34740610;4.31323160;2023-09-18T07:30:30;23.60;90.20
13600;DHT22;6871;51.34740610;4.31323160;2023-09-18T07:33:00;23.60;90.90
13600;DHT22;6871;51.34740610;4.31323160;2023-09-18T07:35:30;23.50;91.30
13600;DHT22;6871;51.34740610;4.31323160;2023-09-18T07:38:00;23.40;91.40
13600;DHT22;6871;51.34740610;4.31323160;2023-09-18T07:40:29;23.40;91.00
13600;DHT22;6871;51.34740610;4.31323160;2023-09-18T07:42:58;23.40;91.40
13600;DHT22;6871;51.34740610;4.31323160;2023-09-18T07:45:27;23.50;91.30
13600;DHT22;6871;51.34740610;4.31323160;2023-09-18T07:47:57;23.60;90.70
13600;DHT22;6871;51.34740610;4.31323160;2023-09-18T07:50:26;23.80;90.30
13600;DHT22;6871;51.34740610;4.31323160;2023-09-18T07:52:56;23.80;90.10
13600;DHT22;6871;51.34740610;4.31323160;2023-09-18T07:55:25;23.90;89.90
13600;DHT22;6871;51.34740610;4.31323160;2023-09-18T07:57:54;23.90;89.60
13600;DHT22;6871;51.34740610;4.31323160;2023-09-18T08:00:23;23.90;89.70
13600;DHT22;6871;51.34740610;4.31323160;2023-09-18T08:02:56;24.00;89.40
13600;DHT22;6871;51.34740610;4.31323160;2023-09-18T08:05:27;24.00;89.70
13600;DHT22;6871;51.34740610;4.31323160;2023-09-18T08:07:58;24.00;89.80
13600;DHT22;6871;51.34740610;4.31323160;2023-09-18T08:10:28;24.00;90.00
13600;DHT22;6871;51.34740610;4.31323160;2023-09-18T08:12:57;24.00;89.60
13600;DHT22;6871;51.34740610;4.31323160;2023-09-18T08:15:26;24.00;89.50
13600;DHT22;6871;51.34740610;4.31323160;2023-09-18T08:17:56;23.90;89.40
13600;DHT22;6871;51.34740610;4.31323160;2023-09-18T08:20:27;24.00;89.30
13600;DHT22;6871;51.34740610;4.31323160;2023-09-18T08:22:56;24.00;89.10
13600;DHT22;6871;51.34740610;4.31323160;2023-09-18T08:25:25;23.90;89.00
13600;DHT22;6871;51.34740610;4.31323160;2023-09-18T08:27:55;24.00;88.90
13600;DHT22;6871;51.34740610;4.31323160;2023-09-18T08:30:24;23.90;89.00
13600;DHT22;6871;51.34740610;4.31323160;2023-09-18T08:32:53;23.90;89.00
13600;DHT22;6871;51.34740610;4.31323160;2023-09-18T08:35:22;23.90;88.80
13600;DHT22;6871;51.34740610;4.31323160;2023-09-18T08:37:53;23.90;88.80
13600;DHT22;6871;51.34740610;4.31323160;2023-09-18T08:40:23;23.90;88.90
13600;DHT22;6871;51.34740610;4.31323160;2023-09-18T08:42:55;23.80;88.80
13600;DHT22;6871;51.34740610;4.31323160;2023-09-18T08:45:31;23.80;89.50
13600;DHT22;6871;51.34740610;4.31323160;2023-09-18T08:48:01;23.90;88.80
13600;DHT22;6871;51.34740610;4.31323160;2023-09-18T08:50:31;23.90;88.90
13600;DHT22;6871;51.34740610;4.31323160;2023-09-18T08:53:00;23.80;89.00
13600;DHT22;6871;51.34740610;4.31323160;2023-09-18T08:55:29;23.90;89.00
13600;DHT22;6871;51.34740610;4.31323160;2023-09-18T08:58:00;23.80;89.50
13600;DHT22;6871;51.34740610;4.31323160;2023-09-18T09:00:30;23.80;88.70
13600;DHT22;6871;51.34740610;4.31323160;2023-09-18T09:02:59;23.80;88.70
13600;DHT22;6871;51.34740610;4.31323160;2023-09-18T09:05:28;23.80;88.90
13600;DHT22;6871;51.34740610;4.31323160;2023-09-18T09:07:58;23.80;88.90
13600;DHT22;6871;51.34740610;4.31323160;2023-09-18T09:10:27;23.80;88.80
13600;DHT22;6871;51.34740610;4.31323160;2023-09-18T09:12:58;23.80;88.80
13600;DHT22;6871;51.34740610;4.31323160;2023-09-18T09:15:31;23.80;88.80
13600;DHT22;6871;51.34740610;4.31323160;2023-09-18T09:18:07;23.80;88.90
13600;DHT22;6871;51.34740610;4.31323160;2023-09-18T09:20:37;23.80;89.00
13600;DHT22;6871;51.34740610;4.31323160;2023-09-18T09:23:08;23.80;88.90
13600;DHT22;6871;51.34740610;4.31323160;2023-09-18T09:25:37;23.80;89.00
13600;DHT22;6871;51.34740610;4.31323160;2023-09-18T09:28:07;23.80;89.10
13600;DHT22;6871;51.34740610;4.31323160;2023-09-18T09:30:37;23.80;89.00
13600;DHT22;6871;51.34740610;4.31323160;2023-09-18T09:33:06;23.80;88.90
13600;DHT22;6871;51.34740610;4.31323160;2023-09-18T09:35:39;23.80;89.20
13600;DHT22;6871;51.34740610;4.31323160;2023-09-18T09:38:12;23.90;89.20
13600;DHT22;6871;51.34740610;4.31323160;2023-09-18T09:40:44;23.90;89.00
13600;DHT22;6871;51.34740610;4.31323160;2023-09-18T09:43:13;23.90;88.90
13600;DHT22;6871;51.34740610;4.31323160;2023-09-18T09:45:44;24.00;88.50
13600;DHT22;6871;51.34740610;4.31323160;2023-09-18T09:48:14;24.00;88.30
13600;DHT22;6871;51.34740610;4.31323160;2023-09-18T09:50:46;24.00;88.20
13600;DHT22;6871;51.34740610;4.31323160;2023-09-18T09:53:16;24.00;88.00
13600;DHT22;6871;51.34740610;4.31323160;2023-09-18T09:55:51;24.10;88.00
13600;DHT22;6871;51.34740610;4.31323160;2023-09-18T09:58:16;24.10;87.90
13600;DHT22;6871;51.34740610;4.31323160;2023-09-18T10:00:48;24.10;87.70
13600;DHT22;6871;51.34740610;4.31323160;2023-09-18T10:03:20;24.10;87.70
13600;DHT22;6871;51.34740610;4.31323160;2023-09-18T10:05:51;24.10;87.80
13600;DHT22;6871;51.34740610;4.31323160;2023-09-18T10:08:23;24.20;87.80
13600;DHT22;6871;51.34740610;4.31323160;2023-09-18T10:10:55;24.20;87.80
13600;DHT22;6871;51.34740610;4.31323160;2023-09-18T10:13:27;24.20;87.50
13600;DHT22;6871;51.34740610;4.31323160;2023-09-18T10:15:59;24.20;87.40
13600;DHT22;6871;51.34740610;4.31323160;2023-09-18T10:18:34;24.20;87.40
13600;DHT22;6871;51.34740610;4.31323160;2023-09-18T10:21:06;24.20;87.40
13600;DHT22;6871;51.34740610;4.31323160;2023-09-18T10:23:45;24.20;87.60
13600;DHT22;6871;51.34740610;4.31323160;2023-09-18T10:26:15;24.10;87.60
13600;DHT22;6871;51.34740610;4.31323160;2023-09-18T10:28:46;24.10;87.50
13600;DHT22;6871;51.34740610;4.31323160;2023-09-18T10:31:16;24.10;87.50
13600;DHT22;6871;51.34740610;4.31323160;2023-09-18T10:33:46;24.10;87.40
13600;DHT22;6871;51.34740610;4.31323160;2023-09-18T10:36:17;24.10;87.50
13600;DHT22;6871;51.34740610;4.31323160;2023-09-18T10:38:47;24.00;88.20
13600;DHT22;6871;51.34740610;4.31323160;2023-09-18T10:41:21;24.00;88.00
13600;DHT22;6871;51.34740610;4.31323160;2023-09-18T10:43:52;24.10;87.80
13600;DHT22;6871;51.34740610;4.31323160;2023-09-18T10:46:22;24.10;87.60
13600;DHT22;6871;51.34740610;4.31323160;2023-09-18T10:48:51;24.10;87.60
13600;DHT22;6871;51.34740610;4.31323160;2023-09-18T10:51:22;24.10;87.80
13600;DHT22;6871;51.34740610;4.31323160;2023-09-18T10:53:53;24.10;87.90
13600;DHT22;6871;51.34740610;4.31323160;2023-09-18T10:56:23;24.10;87.90
13600;DHT22;6871;51.34740610;4.31323160;2023-09-18T10:58:59;24.20;87.80
13600;DHT22;6871;51.34740610;4.31323160;2023-09-18T11:11:32;24.20;87.90
13600;DHT22;6871;51.34740610;4.31323160;2023-09-18T11:14:03;24.20;88.00
13600;DHT22;6871;51.34740610;4.31323160;2023-09-18T11:16:49;24.30;87.90
13600;DHT22;6871;51.34740610;4.31323160;2023-09-18T11:19:18;24.20;87.60
13600;DHT22;6871;51.34740610;4.31323160;2023-09-18T11:35:39;24.30;87.90
13600;DHT22;6871;51.34740610;4.31323160;2023-09-18T11:38:11;24.30;87.80
13600;DHT22;6871;51.34740610;4.31323160;2023-09-18T11:40:41;24.20;87.80
13600;DHT22;6871;51.34740610;4.31323160;2023-09-18T11:43:25;24.30;87.90
13600;DHT22;6871;51.34740610;4.31323160;2023-09-18T11:45:57;24.30;87.80
13600;DHT22;6871;51.34740610;4.31323160;2023-09-18T11:48:29;24.30;87.70
13600;DHT22;6871;51.34740610;4.31323160;2023-09-18T11:51:01;24.40;87.70
13600;DHT22;6871;51.34740610;4.31323160;2023-09-18T11:53:35;24.40;88.60
13600;DHT22;6871;51.34740610;4.31323160;2023-09-18T11:56:10;24.40;87.60
13600;DHT22;6871;51.34740610;4.31323160;2023-09-18T11:58:46;24.50;87.50
13600;DHT22;6871;51.34740610;4.31323160;2023-09-18T12:01:17;24.40;86.20
13600;DHT22;6871;51.34740610;4.31323160;2023-09-18T12:03:46;24.30;87.10
13600;DHT22;6871;51.34740610;4.31323160;2023-09-18T12:06:18;24.40;87.20
13600;DHT22;6871;51.34740610;4.31323160;2023-09-18T12:08:47;24.40;87.00
13600;DHT22;6871;51.34740610;4.31323160;2023-09-18T12:11:18;24.50;87.00
13600;DHT22;6871;51.34740610;4.31323160;2023-09-18T12:13:47;24.50;86.90
13600;DHT22;6871;51.34740610;4.31323160;2023-09-18T12:16:19;24.60;87.00
13600;DHT22;6871;51.34740610;4.31323160;2023-09-18T12:18:48;24.60;87.00
13600;DHT22;6871;51.34740610;4.31323160;2023-09-18T12:21:18;24.60;86.90
13600;DHT22;6871;51.34740610;4.31323160;2023-09-18T12:23:47;24.60;86.90
13600;DHT22;6871;51.34740610;4.31323160;2023-09-18T12:26:17;24.60;87.10
13600;DHT22;6871;51.34740610;4.31323160;2023-09-18T12:28:48;24.60;86.90
13600;DHT22;6871;51.34740610;4.31323160;2023-09-18T12:31:18;24.60;86.90
13600;DHT22;6871;51.34740610;4.31323160;2023-09-18T12:33:47;24.60;86.90
13600;DHT22;6871;51.34740610;4.31323160;2023-09-18T12:36:19;24.60;86.90
13600;DHT22;6871;51.34740610;4.31323160;2023-09-18T12:38:57;24.60;87.30
13600;DHT22;6871;51.34740610;4.31323160;2023-09-18T12:41:28;24.60;86.90
13600;DHT22;6871;51.34740610;4.31323160;2023-09-18T12:43:59;24.60;87.10
13600;DHT22;6871;51.34740610;4.31323160;2023-09-18T12:46:28;24.60;87.20
13600;DHT22;6871;51.34740610;4.31323160;2023-09-18T12:48:58;24.60;87.20
13600;DHT22;6871;51.34740610;4.31323160;2023-09-18T12:51:31;24.60;87.20
13600;DHT22;6871;51.34740610;4.31323160;2023-09-18T12:54:03;24.60;87.40
13600;DHT22;6871;51.34740610;4.31323160;2023-09-18T12:56:40;24.60;87.40
13600;DHT22;6871;51.34740610;4.31323160;2023-09-18T12:59:09;24.50;87.40
13600;DHT22;6871;51.34740610;4.31323160;2023-09-18T13:01:45;24.50;87.40
13600;DHT22;6871;51.34740610;4.31323160;2023-09-18T13:04:13;24.50;87.50
13600;DHT22;6871;51.34740610;4.31323160;2023-09-18T13:06:42;24.50;87.60
13600;DHT22;6871;51.34740610;4.31323160;2023-09-18T13:09:18;24.50;87.60
13600;DHT22;6871;51.34740610;4.31323160;2023-09-18T13:11:57;24.50;87.60
13600;DHT22;6871;51.34740610;4.31323160;2023-09-18T13:14:26;24.50;87.60
13600;DHT22;6871;51.34740610;4.31323160;2023-09-18T13:17:00;24.50;87.60
13600;DHT22;6871;51.34740610;4.31323160;2023-09-18T13:19:32;24.50;87.60
13600;DHT22;6871;51.34740610;4.31323160;2023-09-18T13:22:01;24.50;87.60
13600;DHT22;6871;51.34740610;4.31323160;2023-09-18T13:24:32;24.50;87.60
13600;DHT22;6871;51.34740610;4.31323160;2023-09-18T13:27:02;24.50;87.60
13600;DHT22;6871;51.34740610;4.31323160;2023-09-18T13:29:31;24.50;87.60
13600;DHT22;6871;51.34740610;4.31323160;2023-09-18T13:32:00;24.50;87.60
13600;DHT22;6871;51.34740610;4.31323160;2023-09-18T13:34:31;24.50;87.60
13600;DHT22;6871;51.34740610;4.31323160;2023-09-18T13:37:00;24.50;87.60
13600;DHT22;6871;51.34740610;4.31323160;2023-09-18T13:39:30;24.50;87.60
13600;DHT22;6871;51.34740610;4.31323160;2023-09-18T13:41:59;24.50;87.60
13600;DHT22;6871;51.34740610;4.31323160;2023-09-18T13:44:28;24.50;87.60
13600;DHT22;6871;51.34740610;4.31323160;2023-09-18T13:46:57;24.50;87.50
13600;DHT22;6871;51.34740610;4.31323160;2023-09-18T13:49:26;24.50;87.40
13600;DHT22;6871;51.34740610;4.31323160;2023-09-18T13:51:56;24.60;87.40
13600;DHT22;6871;51.34740610;4.31323160;2023-09-18T13:54:25;24.50;87.30
13600;DHT22;6871;51.34740610;4.31323160;2023-09-18T13:56:54;24.60;87.40
13600;DHT22;6871;51.34740610;4.31323160;2023-09-18T13:59:23;24.50;87.30
13600;DHT22;6871;51.34740610;4.31323160;2023-09-18T14:01:52;24.60;87.00
13600;DHT22;6871;51.34740610;4.31323160;2023-09-18T14:04:23;24.50;86.80
13600;DHT22;6871;51.34740610;4.31323160;2023-09-18T14:06:54;24.50;87.00
13600;DHT22;6871;51.34740610;4.31323160;2023-09-18T14:09:23;24.50;87.10
13600;DHT22;6871;51.34740610;4.31323160;2023-09-18T14:11:52;24.50;87.80
13600;DHT22;6871;51.34740610;4.31323160;2023-09-18T14:14:22;24.50;87.10
13600;DHT22;6871;51.34740610;4.31323160;2023-09-18T14:16:52;24.50;87.20
13600;DHT22;6871;51.34740610;4.31323160;2023-09-18T14:19:23;24.50;87.20
13600;DHT22;6871;51.34740610;4.31323160;2023-09-18T14:21:53;24.50;87.30
13600;DHT22;6871;51.34740610;4.31323160;2023-09-18T14:24:22;24.50;87.30
13600;DHT22;6871;51.34740610;4.31323160;2023-09-18T14:26:53;24.40;87.30